Time;durP1;ratioP1;P1;durP2;ratioP2;P2;SDS_P1;SDS_P2;PMS_P1;PMS_P2;Temp;Humidity;BMP_temperature;BMP_pressure;BME280_temperature;BME280_humidity;BME280_pressure;Samples;Min_cycle;Max_cycle;Signal;HPM_P1;HPM_P2
2023/03/10 00:01:34;;;;;;;4.83;1.90;;;7.10;99.90;;;;;;5038352;28;20095;-80
2023/03/10 00:04:01;;;;;;;4.33;1.70;;;7.10;99.90;;;;;;5039514;28;20496;-80
2023/03/10 00:06:28;;;;;;;2.97;1.63;;;7.10;99.90;;;;;;5037305;28;20394;-80
2023/03/10 00:08:54;;;;;;;4.10;1.70;;;7.10;99.90;;;;;;5039132;28;20036;-80
2023/03/10 00:11:21;;;;;;;5.10;1.83;;;7.10;99.90;;;;;;5042299;28;20025;-80
2023/03/10 00:13:46;;;;;;;5.60;1.60;;;7.10;99.90;;;;;;5031310;28;20504;-80
2023/03/10 00:16:21;;;;;;;6.00;1.83;;;7.10;99.90;;;;;;5033151;28;20029;-80
2023/03/10 00:18:47;;;;;;;2.57;1.40;;;7.00;99.90;;;;;;5039544;28;20029;-80
2023/03/10 00:21:15;;;;;;;4.57;1.70;;;6.90;99.90;;;;;;5038528;28;20021;-80
2023/03/10 00:23:41;;;;;;;3.43;1.43;;;6.90;99.90;;;;;;5037477;28;20030;-80
2023/03/10 00:26:07;;;;;;;4.33;1.60;;;6.90;99.90;;;;;;5037573;28;20403;-80
2023/03/10 00:28:32;;;;;;;5.47;1.83;;;6.80;99.90;;;;;;5041913;28;20017;-80
2023/03/10 00:31:00;;;;;;;4.30;1.67;;;6.80;99.90;;;;;;5039364;28;20819;-80
2023/03/10 00:33:26;;;;;;;5.60;1.63;;;6.80;99.90;;;;;;5032959;28;20052;-80
2023/03/10 00:36:13;;;;;;;5.00;1.57;;;6.70;99.90;;;;;;5039383;28;20048;-80
2023/03/10 00:38:40;;;;;;;3.40;1.50;;;6.70;99.90;;;;;;5038597;28;20025;-80
2023/03/10 00:41:12;;;;;;;3.37;1.70;;;6.70;99.90;;;;;;5036312;28;20091;-80
2023/03/10 00:43:38;;;;;;;4.57;1.70;;;6.80;99.90;;;;;;5037894;28;20146;-80
2023/03/10 00:46:04;;;;;;;4.63;1.60;;;6.80;99.90;;;;;;5034901;28;20052;-80
2023/03/10 00:48:30;;;;;;;3.87;1.50;;;6.80;99.90;;;;;;5037197;28;20080;-80
2023/03/10 00:50:56;;;;;;;4.23;1.40;;;6.80;99.90;;;;;;5038416;28;20024;-80
2023/03/10 00:53:22;;;;;;;3.83;1.90;;;6.80;99.90;;;;;;5034276;28;20441;-80
2023/03/10 00:55:56;;;;;;;3.87;1.70;;;6.80;99.90;;;;;;5041255;28;20104;-80
2023/03/10 00:58:22;;;;;;;4.23;1.90;;;6.70;99.90;;;;;;5034577;28;20061;-80
2023/03/10 01:00:47;;;;;;;4.47;1.50;;;6.70;99.90;;;;;;5038953;28;20291;-80
2023/03/10 01:03:13;;;;;;;3.23;1.30;;;6.70;99.90;;;;;;5041388;28;20029;-80
2023/03/10 01:05:38;;;;;;;8.27;1.87;;;6.70;99.90;;;;;;5035367;28;20025;-80
2023/03/10 01:08:04;;;;;;;7.40;1.87;;;6.60;99.90;;;;;;5042979;28;20091;-80
2023/03/10 01:10:30;;;;;;;5.43;1.70;;;6.60;99.90;;;;;;5039318;28;20406;-80
2023/03/10 01:12:55;;;;;;;4.23;1.60;;;6.50;99.90;;;;;;5041054;28;20021;-80
2023/03/10 01:15:21;;;;;;;5.70;1.83;;;6.50;99.90;;;;;;5038383;28;20025;-80
2023/03/10 01:17:46;;;;;;;2.97;1.50;;;6.50;99.90;;;;;;5038238;28;20021;-80
2023/03/10 01:20:14;;;;;;;4.67;1.20;;;6.40;99.90;;;;;;5037139;28;20029;-80
2023/03/10 01:22:40;;;;;;;6.07;1.80;;;6.40;99.90;;;;;;5036797;28;20024;-80
2023/03/10 01:25:05;;;;;;;5.77;1.60;;;6.40;99.90;;;;;;5038634;28;20017;-80
2023/03/10 01:27:31;;;;;;;3.87;1.50;;;6.40;99.90;;;;;;5037923;28;20522;-80
2023/03/10 01:29:57;;;;;;;3.20;1.40;;;6.40;99.90;;;;;;5036915;28;20124;-81
2023/03/10 01:32:22;;;;;;;4.60;1.50;;;6.40;99.90;;;;;;5039917;28;20025;-81
2023/03/10 01:34:48;;;;;;;4.20;1.63;;;6.40;99.90;;;;;;5037615;28;20028;-81
2023/03/10 01:37:13;;;;;;;4.70;1.47;;;6.40;99.90;;;;;;5032088;28;20025;-80
2023/03/10 01:39:39;;;;;;;3.47;1.57;;;6.40;99.90;;;;;;5040914;28;20025;-81
2023/03/10 01:42:04;;;;;;;5.73;1.63;;;6.40;99.90;;;;;;5034012;28;20036;-80
2023/03/10 01:44:30;;;;;;;4.47;1.50;;;6.40;99.90;;;;;;5035061;28;20025;-80
2023/03/10 01:46:57;;;;;;;2.90;1.57;;;6.40;99.90;;;;;;5037723;28;20021;-80
2023/03/10 01:49:35;;;;;;;3.70;1.37;;;6.40;99.90;;;;;;5042290;28;20020;-80
2023/03/10 01:52:15;;;;;;;3.83;1.40;;;6.40;99.90;;;;;;5042841;28;20042;-80
2023/03/10 01:54:53;;;;;;;5.67;1.67;;;6.40;99.90;;;;;;5036475;28;20025;-80
2023/03/10 01:57:45;;;;;;;2.70;1.40;;;6.40;99.90;;;;;;5029793;28;20056;-80
2023/03/10 02:00:11;;;;;;;3.53;1.20;;;6.40;99.90;;;;;;5033904;28;20029;-80
2023/03/10 02:02:43;;;;;;;3.97;1.40;;;6.40;99.90;;;;;;5036233;28;20029;-80
2023/03/10 02:05:11;;;;;;;4.77;1.50;;;6.40;99.90;;;;;;5034015;28;20029;-80
2023/03/10 02:07:37;;;;;;;3.50;1.40;;;6.30;99.90;;;;;;5038730;28;20121;-81
2023/03/10 02:10:03;;;;;;;4.73;1.50;;;6.30;99.90;;;;;;5037079;28;20122;-80
2023/03/10 02:12:28;;;;;;;3.67;1.53;;;6.30;99.90;;;;;;5033926;28;20025;-80
2023/03/10 02:14:55;;;;;;;4.63;2.00;;;6.30;99.90;;;;;;5037066;28;20147;-81
2023/03/10 02:17:23;;;;;;;7.10;1.63;;;6.30;99.90;;;;;;5036393;28;20425;-80
2023/03/10 02:20:01;;;;;;;3.20;1.40;;;6.30;99.90;;;;;;5038623;28;20026;-80
2023/03/10 02:22:27;;;;;;;2.60;1.33;;;6.20;99.90;;;;;;5034101;28;20021;-80
2023/03/10 02:25:30;;;;;;;5.10;1.57;;;6.20;99.90;;;;;;5034203;28;20037;-81
2023/03/10 02:27:57;;;;;;;5.27;1.90;;;6.20;99.90;;;;;;5035565;28;20033;-80
2023/03/10 02:30:42;;;;;;;3.10;1.30;;;6.20;99.90;;;;;;5041219;28;20408;-81
2023/03/10 02:33:15;;;;;;;3.78;1.60;;;6.20;99.90;;;;;;5034018;28;20585;-81
2023/03/10 02:35:41;;;;;;;3.67;1.47;;;6.10;99.90;;;;;;5027754;28;20041;-81
2023/03/10 02:38:06;;;;;;;5.80;1.83;;;6.10;99.90;;;;;;5035485;28;20125;-80
2023/03/10 02:40:36;;;;;;;4.43;1.87;;;6.00;99.90;;;;;;5036121;28;20033;-81
2023/03/10 02:43:10;;;;;;;4.70;1.63;;;6.00;99.90;;;;;;5041809;28;20079;-80
2023/03/10 02:45:39;;;;;;;3.30;1.63;;;6.00;99.90;;;;;;5041098;28;20474;-81
2023/03/10 02:48:07;;;;;;;3.73;1.40;;;5.90;99.90;;;;;;5034258;28;20064;-80
2023/03/10 02:50:36;;;;;;;4.27;1.77;;;5.90;99.90;;;;;;5036973;28;20017;-80
2023/03/10 02:53:15;;;;;;;4.00;1.53;;;5.90;99.90;;;;;;5033981;28;20037;-80
2023/03/10 02:55:40;;;;;;;2.63;1.40;;;5.80;99.90;;;;;;5032445;28;20029;-81
2023/03/10 02:58:06;;;;;;;3.37;1.50;;;5.80;99.90;;;;;;5041843;28;20033;-80
2023/03/10 03:00:36;;;;;;;4.80;1.60;;;5.80;99.90;;;;;;5039730;28;20025;-80
2023/03/10 03:03:02;;;;;;;4.77;1.63;;;5.70;99.90;;;;;;5036368;28;20045;-81
2023/03/10 03:05:28;;;;;;;5.57;1.70;;;5.70;99.90;;;;;;5033819;28;20050;-80
2023/03/10 03:07:53;;;;;;;4.23;1.70;;;5.80;99.90;;;;;;5036670;28;20437;-81
2023/03/10 03:10:19;;;;;;;2.70;1.53;;;5.80;99.90;;;;;;5035827;28;20386;-80
2023/03/10 03:12:45;;;;;;;6.87;1.70;;;5.80;99.90;;;;;;5038755;28;20030;-81
2023/03/10 03:15:10;;;;;;;4.63;1.87;;;5.80;99.90;;;;;;5040970;28;20025;-80
2023/03/10 03:17:36;;;;;;;3.10;1.37;;;5.90;99.90;;;;;;5039300;28;20053;-81
2023/03/10 03:20:10;;;;;;;3.27;1.60;;;5.90;99.90;;;;;;5038062;28;20113;-80
2023/03/10 03:22:36;;;;;;;2.53;1.40;;;5.90;99.90;;;;;;5039018;28;20025;-80
2023/03/10 03:25:02;;;;;;;3.13;1.60;;;6.00;99.90;;;;;;5042712;28;20299;-80
2023/03/10 03:27:29;;;;;;;5.17;1.57;;;6.00;99.90;;;;;;5036697;28;20112;-80
2023/03/10 03:29:54;;;;;;;4.67;1.87;;;6.00;99.90;;;;;;5041286;28;20370;-81
2023/03/10 03:32:20;;;;;;;3.70;1.63;;;6.00;99.90;;;;;;5035455;28;20032;-81
2023/03/10 03:34:45;;;;;;;4.33;1.60;;;6.00;99.90;;;;;;5037227;28;20026;-80
2023/03/10 03:37:11;;;;;;;7.67;1.70;;;6.00;99.90;;;;;;5037058;28;20033;-81
2023/03/10 03:39:36;;;;;;;4.37;1.83;;;6.00;99.90;;;;;;5035579;28;20020;-80
2023/03/10 03:42:02;;;;;;;3.97;1.70;;;6.00;99.90;;;;;;5040174;28;20080;-80
2023/03/10 03:44:28;;;;;;;3.37;1.37;;;6.00;99.90;;;;;;5038768;28;20053;-80
2023/03/10 03:46:53;;;;;;;3.03;1.53;;;5.90;99.90;;;;;;5044459;28;20037;-80
2023/03/10 03:49:19;;;;;;;2.80;1.50;;;5.90;99.90;;;;;;5041815;28;20096;-80
2023/03/10 03:51:44;;;;;;;3.77;1.40;;;5.90;99.90;;;;;;5043128;28;20435;-81
2023/03/10 03:54:10;;;;;;;3.67;1.80;;;5.90;99.90;;;;;;5038729;28;20550;-81
2023/03/10 03:56:35;;;;;;;4.37;1.50;;;5.90;99.90;;;;;;5040455;28;20025;-80
2023/03/10 03:59:01;;;;;;;3.30;1.67;;;5.90;99.90;;;;;;5036752;28;20028;-81
2023/03/10 04:01:26;;;;;;;5.63;2.63;;;5.90;99.90;;;;;;5036319;28;20383;-81
2023/03/10 04:03:52;;;;;;;4.83;2.63;;;5.90;99.90;;;;;;5034389;28;20029;-80
2023/03/10 04:06:17;;;;;;;5.50;1.57;;;5.90;99.90;;;;;;5039130;28;20111;-80
2023/03/10 04:08:43;;;;;;;2.67;1.40;;;5.90;99.90;;;;;;5038038;28;20021;-81
2023/03/10 04:11:09;;;;;;;3.17;1.37;;;5.90;99.90;;;;;;5036891;28;20032;-81
2023/03/10 04:13:36;;;;;;;3.67;1.50;;;5.90;99.90;;;;;;5032899;28;20036;-81
2023/03/10 04:16:01;;;;;;;3.50;1.40;;;5.90;99.90;;;;;;5035276;28;20250;-80
2023/03/10 04:18:27;;;;;;;2.73;1.30;;;6.00;99.90;;;;;;5034313;28;20472;-80
2023/03/10 04:20:52;;;;;;;3.53;1.20;;;6.10;99.90;;;;;;5042465;28;20025;-80
2023/03/10 04:23:18;;;;;;;2.80;1.20;;;6.20;99.90;;;;;;5034290;28;20030;-81
2023/03/10 04:25:43;;;;;;;4.87;1.40;;;6.30;99.90;;;;;;5032667;28;20125;-80
2023/03/10 04:28:10;;;;;;;2.73;1.10;;;6.30;99.90;;;;;;5036942;28;20073;-80
2023/03/10 04:30:36;;;;;;;4.87;1.27;;;6.40;99.90;;;;;;5036412;28;20084;-80
2023/03/10 04:33:02;;;;;;;3.27;1.20;;;6.40;99.90;;;;;;5035594;28;20045;-80
2023/03/10 04:35:27;;;;;;;2.17;1.20;;;6.50;99.90;;;;;;5037091;28;20135;-80
2023/03/10 04:37:53;;;;;;;2.70;1.30;;;6.60;99.90;;;;;;5038508;28;20363;-80
2023/03/10 04:40:19;;;;;;;6.20;1.27;;;6.70;99.90;;;;;;5038138;28;20051;-81
2023/03/10 04:42:45;;;;;;;4.00;1.57;;;6.70;99.90;;;;;;5034494;28;20025;-80
2023/03/10 04:45:11;;;;;;;6.07;1.20;;;6.80;99.90;;;;;;5035538;28;20459;-80
2023/03/10 04:47:37;;;;;;;4.63;1.40;;;6.80;99.90;;;;;;5037655;28;20092;-80
2023/03/10 04:50:03;;;;;;;9.50;2.10;;;6.90;99.90;;;;;;5036124;28;20457;-80
2023/03/10 04:52:29;;;;;;;2.30;1.20;;;6.90;99.90;;;;;;5034797;28;20397;-81
2023/03/10 04:54:55;;;;;;;4.40;1.50;;;7.00;99.90;;;;;;5033281;28;20048;-80
2023/03/10 04:57:23;;;;;;;3.33;1.40;;;7.00;99.90;;;;;;5039773;28;20030;-80
2023/03/10 04:59:49;;;;;;;3.77;1.30;;;7.10;99.90;;;;;;5036580;28;20104;-80
2023/03/10 05:02:15;;;;;;;1.97;1.00;;;7.10;99.90;;;;;;5036679;28;20033;-80
2023/03/10 05:04:40;;;;;;;3.27;1.10;;;7.10;99.90;;;;;;5036289;28;20088;-80
2023/03/10 05:07:06;;;;;;;6.80;1.50;;;7.10;99.90;;;;;;5032926;28;20502;-80
2023/03/10 05:09:35;;;;;;;3.33;1.10;;;7.20;99.90;;;;;;5033454;28;20154;-80
2023/03/10 05:12:01;;;;;;;3.67;1.40;;;7.30;99.90;;;;;;5035034;28;20041;-80
2023/03/10 05:14:27;;;;;;;3.67;1.47;;;7.40;99.90;;;;;;5036328;28;20025;-80
2023/03/10 05:16:52;;;;;;;6.07;1.50;;;7.40;99.90;;;;;;5033701;28;20048;-80
2023/03/10 05:19:18;;;;;;;4.97;1.20;;;7.50;99.90;;;;;;5035979;28;20031;-80
2023/03/10 05:21:43;;;;;;;4.27;1.67;;;7.60;99.90;;;;;;5034839;28;20044;-80
2023/03/10 05:24:09;;;;;;;8.60;1.40;;;7.60;99.90;;;;;;5033685;28;20075;-80
2023/03/10 05:26:34;;;;;;;4.30;1.70;;;7.70;99.90;;;;;;5033428;28;20496;-80
2023/03/10 05:29:00;;;;;;;5.30;1.40;;;7.80;99.90;;;;;;5035038;28;20033;-79
2023/03/10 05:31:28;;;;;;;3.53;1.40;;;7.90;99.90;;;;;;5036065;28;20023;-79
2023/03/10 05:33:54;;;;;;;3.33;1.50;;;8.00;99.90;;;;;;5036806;28;20147;-79
2023/03/10 05:36:20;;;;;;;5.63;1.50;;;8.00;99.90;;;;;;5032468;28;20422;-79
2023/03/10 05:38:46;;;;;;;5.87;1.67;;;8.20;99.90;;;;;;5033796;28;20027;-79
2023/03/10 05:41:12;;;;;;;7.83;1.80;;;8.20;99.90;;;;;;5032727;28;20033;-80
2023/03/10 05:43:38;;;;;;;31.53;1.93;;;8.30;99.90;;;;;;5035386;28;20040;-79
2023/03/10 05:46:04;;;;;;;6.60;1.60;;;8.40;99.90;;;;;;5031931;28;20029;-80
2023/03/10 05:48:30;;;;;;;10.37;1.73;;;8.40;99.90;;;;;;5032985;28;20041;-80
2023/03/10 05:50:58;;;;;;;2.40;1.40;;;8.50;99.90;;;;;;5034266;28;20031;-80
2023/03/10 05:53:24;;;;;;;3.43;1.47;;;8.40;99.90;;;;;;5030818;28;20025;-80
2023/03/10 05:55:50;;;;;;;4.03;1.20;;;8.40;99.90;;;;;;5035282;28;20029;-79
2023/03/10 05:58:15;;;;;;;4.37;1.50;;;8.40;99.90;;;;;;5033926;28;20117;-79
2023/03/10 06:00:41;;;;;;;2.77;1.20;;;8.50;99.90;;;;;;5030774;28;20360;-79
2023/03/10 06:03:08;;;;;;;8.43;1.60;;;8.40;99.90;;;;;;5032432;28;20067;-80
2023/03/10 06:05:34;;;;;;;4.30;1.30;;;8.40;99.90;;;;;;5027221;28;20049;-79
2023/03/10 06:08:00;;;;;;;4.30;1.10;;;8.50;99.90;;;;;;5033543;28;20037;-80
2023/03/10 06:10:28;;;;;;;2.03;1.20;;;8.40;99.90;;;;;;5029969;28;20063;-79
2023/03/10 06:12:54;;;;;;;2.60;1.10;;;8.50;99.90;;;;;;5029480;28;20175;-79
2023/03/10 06:15:20;;;;;;;3.20;1.10;;;8.50;99.90;;;;;;5021599;28;20038;-79
2023/03/10 06:17:45;;;;;;;2.77;1.20;;;8.50;99.90;;;;;;5025271;28;20029;-79
2023/03/10 06:20:11;;;;;;;3.10;1.30;;;8.50;99.90;;;;;;5026630;28;20047;-79
2023/03/10 06:22:37;;;;;;;1.77;1.07;;;8.40;99.90;;;;;;5032930;28;20156;-79
2023/03/10 06:25:03;;;;;;;2.40;1.10;;;8.50;99.90;;;;;;5030590;28;20025;-80
2023/03/10 06:27:30;;;;;;;3.40;1.20;;;8.40;99.90;;;;;;5029735;28;20033;-79
2023/03/10 06:29:55;;;;;;;2.97;1.23;;;8.40;99.90;;;;;;5025462;28;20077;-79
2023/03/10 06:32:21;;;;;;;1.87;1.10;;;8.40;99.90;;;;;;5025804;28;20450;-85
2023/03/10 06:34:49;;;;;;;2.17;1.30;;;8.30;99.90;;;;;;5024159;28;20088;-85
2023/03/10 06:37:17;;;;;;;5.60;1.77;;;8.30;99.90;;;;;;5024516;28;20026;-83
2023/03/10 06:39:43;;;;;;;7.10;1.30;;;8.20;99.90;;;;;;5030298;28;20040;-83
2023/03/10 06:42:08;;;;;;;2.90;1.10;;;8.30;99.90;;;;;;5023879;28;20037;-83
2023/03/10 06:44:34;;;;;;;2.80;1.13;;;8.30;99.90;;;;;;5021455;28;20030;-83
2023/03/10 06:47:03;;;;;;;6.90;2.10;;;8.30;99.90;;;;;;5023133;28;20029;-83
2023/03/10 06:49:30;;;;;;;2.70;1.17;;;8.30;99.90;;;;;;5025712;28;20493;-83
2023/03/10 06:51:55;;;;;;;4.07;1.50;;;8.40;99.90;;;;;;5023722;28;20113;-83
2023/03/10 06:54:21;;;;;;;7.63;1.50;;;8.40;99.90;;;;;;5024171;28;20460;-83
2023/03/10 06:56:48;;;;;;;5.80;1.20;;;8.40;99.90;;;;;;5025016;28;20831;-82
2023/03/10 06:59:14;;;;;;;6.13;1.13;;;8.50;99.90;;;;;;5026176;28;20024;-82
2023/03/10 07:01:40;;;;;;;3.57;1.20;;;8.60;99.90;;;;;;5025281;28;20031;-78
2023/03/10 07:04:06;;;;;;;3.43;1.23;;;8.60;99.90;;;;;;5029061;28;20106;-78
2023/03/10 07:06:32;;;;;;;5.40;1.37;;;8.70;99.90;;;;;;5030996;28;20104;-78
2023/03/10 07:08:58;;;;;;;7.43;1.67;;;8.70;99.90;;;;;;5032700;28;20390;-78
2023/03/10 07:11:25;;;;;;;5.63;1.60;;;8.80;99.90;;;;;;5029834;28;20137;-78
2023/03/10 07:13:51;;;;;;;3.83;1.30;;;8.90;99.90;;;;;;5027025;28;20040;-78
2023/03/10 07:16:17;;;;;;;6.57;1.50;;;8.90;99.90;;;;;;5029416;28;20128;-78
2023/03/10 07:18:43;;;;;;;3.90;1.60;;;8.90;99.90;;;;;;5029772;28;20450;-79
2023/03/10 07:21:11;;;;;;;4.53;1.53;;;9.00;99.90;;;;;;5025409;28;20034;-79
2023/03/10 07:23:37;;;;;;;5.60;2.00;;;9.00;99.90;;;;;;5023617;28;20061;-79
2023/03/10 07:26:06;;;;;;;4.47;1.50;;;9.10;99.90;;;;;;5028877;28;20021;-79
2023/03/10 07:28:32;;;;;;;5.03;1.60;;;9.20;99.90;;;;;;5025325;28;20389;-79
2023/03/10 07:31:02;;;;;;;6.93;1.47;;;9.20;99.90;;;;;;5028457;28;20029;-79
2023/03/10 07:33:27;;;;;;;6.33;1.23;;;9.20;99.90;;;;;;5026660;28;20026;-79
2023/03/10 07:35:53;;;;;;;6.97;1.47;;;9.30;99.90;;;;;;5026855;28;20095;-79
2023/03/10 07:38:18;;;;;;;6.80;1.60;;;9.30;99.90;;;;;;5028264;28;20076;-79
2023/03/10 07:40:44;;;;;;;6.03;1.60;;;9.40;99.90;;;;;;5027893;28;20448;-79
2023/03/10 07:43:09;;;;;;;6.07;1.73;;;9.50;99.90;;;;;;5023651;28;20040;-79
2023/03/10 07:45:36;;;;;;;4.63;1.50;;;9.50;99.90;;;;;;5027731;28;21403;-78
2023/03/10 07:48:02;;;;;;;4.47;1.60;;;9.60;99.90;;;;;;5027538;28;20052;-82
2023/03/10 07:50:27;;;;;;;7.37;1.50;;;9.70;99.90;;;;;;5028383;28;20030;-79
2023/03/10 07:52:55;;;;;;;2.90;1.30;;;9.70;99.90;;;;;;5030655;28;20029;-79
2023/03/10 07:55:21;;;;;;;8.47;1.50;;;9.70;99.90;;;;;;5027995;28;20071;-79
2023/03/10 07:57:47;;;;;;;4.50;1.57;;;9.80;99.90;;;;;;5022897;28;20029;-83
2023/03/10 08:00:14;;;;;;;4.30;1.57;;;9.80;99.90;;;;;;5023286;28;20033;-79
2023/03/10 08:02:39;;;;;;;7.23;1.33;;;9.90;99.90;;;;;;5027877;28;20034;-79
2023/03/10 08:05:06;;;;;;;7.23;1.47;;;9.90;99.90;;;;;;5026555;28;20029;-79
2023/03/10 08:07:31;;;;;;;6.63;1.53;;;10.00;99.90;;;;;;5024538;28;20033;-83
2023/03/10 08:09:57;;;;;;;3.43;1.43;;;10.00;99.90;;;;;;5024007;28;20075;-82
2023/03/10 08:12:23;;;;;;;5.20;1.70;;;10.10;99.90;;;;;;5026546;28;20774;-82
2023/03/10 08:14:50;;;;;;;7.67;1.90;;;10.10;99.90;;;;;;5024525;28;20034;-79
2023/03/10 08:17:15;;;;;;;4.27;1.23;;;10.20;99.90;;;;;;5025460;28;20033;-79
2023/03/10 08:19:41;;;;;;;7.87;1.93;;;10.20;99.90;;;;;;5026054;28;20027;-76
2023/03/10 08:22:07;;;;;;;4.60;1.67;;;10.30;99.90;;;;;;5024951;28;20033;-79
2023/03/10 08:24:32;;;;;;;9.53;1.90;;;10.30;99.90;;;;;;5026740;28;20028;-79
2023/03/10 08:26:58;;;;;;;8.70;1.80;;;10.40;99.90;;;;;;5024834;28;20109;-79
2023/03/10 08:29:23;;;;;;;6.83;1.57;;;10.40;99.90;;;;;;5027417;28;20183;-79
2023/03/10 08:31:49;;;;;;;4.03;1.30;;;10.40;99.90;;;;;;5024586;28;20041;-83
2023/03/10 08:34:16;;;;;;;4.37;1.57;;;10.50;99.90;;;;;;5024098;28;20869;-82
2023/03/10 08:36:42;;;;;;;10.83;1.90;;;10.50;99.90;;;;;;5022931;28;20030;-81
2023/03/10 08:39:09;;;;;;;8.37;1.60;;;10.60;99.90;;;;;;5024635;28;20071;-78
2023/03/10 08:41:43;;;;;;;6.07;1.67;;;10.60;99.90;;;;;;5027990;28;20032;-82
2023/03/10 08:44:10;;;;;;;8.87;1.77;;;10.60;99.90;;;;;;5025516;28;20037;-78
2023/03/10 08:46:39;;;;;;;6.87;1.80;;;10.70;99.90;;;;;;5024955;28;20033;-79
2023/03/10 08:49:04;;;;;;;5.68;1.40;;;10.80;99.90;;;;;;5018819;28;20057;-79
2023/03/10 08:51:30;;;;;;;5.70;1.50;;;10.80;99.90;;;;;;5015826;28;20048;-82
2023/03/10 08:53:55;;;;;;;5.37;1.67;;;10.90;99.90;;;;;;5015125;28;20044;-82
2023/03/10 08:56:22;;;;;;;3.83;1.30;;;11.10;99.90;;;;;;5016814;28;20033;-82
2023/03/10 08:58:48;;;;;;;2.97;1.20;;;11.20;99.90;;;;;;5017094;28;20099;-78
2023/03/10 09:01:15;;;;;;;3.03;1.40;;;11.40;99.90;;;;;;5019480;28;20029;-82
2023/03/10 09:03:42;;;;;;;9.15;1.70;;;11.60;99.90;;;;;;5019260;28;20049;-82
2023/03/10 09:06:09;;;;;;;7.43;1.40;;;11.80;99.90;;;;;;5017000;28;21293;-82
2023/03/10 09:08:34;;;;;;;4.47;1.65;;;11.80;99.90;;;;;;5019064;28;20033;-79
2023/03/10 09:11:00;;;;;;;4.25;1.30;;;11.90;99.90;;;;;;5025716;28;20041;-79
2023/03/10 09:13:26;;;;;;;5.72;1.67;;;11.90;99.90;;;;;;5026622;28;20294;-78
2023/03/10 09:15:52;;;;;;;3.38;1.17;;;12.10;99.90;;;;;;5024941;28;20128;-79
2023/03/10 09:18:18;;;;;;;5.18;1.50;;;12.20;99.90;;;;;;5016959;28;20037;-82
2023/03/10 09:20:46;;;;;;;4.18;1.20;;;12.20;99.90;;;;;;5020109;28;20040;-78
2023/03/10 09:23:13;;;;;;;2.70;1.10;;;12.40;99.90;;;;;;5016727;28;20091;-79
2023/03/10 09:25:39;;;;;;;2.80;1.30;;;12.40;99.90;;;;;;5017904;28;20111;-79
2023/03/10 09:28:06;;;;;;;3.05;1.20;;;12.50;99.90;;;;;;5016417;28;20044;-82
2023/03/10 09:30:36;;;;;;;3.08;1.35;;;12.50;99.90;;;;;;5018986;28;20041;-82
2023/03/10 09:33:03;;;;;;;5.70;1.45;;;12.60;99.90;;;;;;5021187;28;20041;-82
2023/03/10 09:35:29;;;;;;;4.28;1.60;;;12.60;99.90;;;;;;5018727;28;20689;-79
2023/03/10 09:37:54;;;;;;;4.65;1.60;;;12.60;99.90;;;;;;5015784;28;20087;-79
2023/03/10 09:40:20;;;;;;;3.53;1.45;;;12.50;99.90;;;;;;5024069;28;20120;-82
2023/03/10 09:42:50;;;;;;;6.68;1.80;;;12.40;99.90;;;;;;5019182;28;20064;-82
2023/03/10 09:45:27;;;;;;;4.82;1.55;;;12.30;99.90;;;;;;5022697;28;20044;-78
2023/03/10 09:48:14;;;;;;;3.33;1.35;;;12.30;99.90;;;;;;5024448;28;20053;-79
2023/03/10 09:50:46;;;;;;;7.57;1.77;;;12.30;99.90;;;;;;5023762;28;20158;-82
2023/03/10 09:53:26;;;;;;;3.72;1.20;;;12.30;99.90;;;;;;5025523;28;20030;-78
2023/03/10 09:55:52;;;;;;;2.40;1.10;;;12.30;99.90;;;;;;5027347;28;20034;-78
2023/03/10 09:58:27;;;;;;;3.13;1.23;;;12.20;99.90;;;;;;5028703;28;20033;-78
2023/03/10 10:00:53;;;;;;;;;;;12.00;99.90;;;;;;5023640;28;20530;-82
2023/03/10 10:03:21;;;;;;;1.55;0.95;;;11.90;99.90;;;;;;5011606;28;19924;-78
2023/03/10 10:05:52;;;;;;;1.53;0.70;;;11.70;99.90;;;;;;5021229;28;20040;-78
2023/03/10 10:08:25;;;;;;;1.10;0.80;;;11.40;99.90;;;;;;5023845;28;20026;-78
2023/03/10 10:10:57;;;;;;;2.63;0.70;;;11.20;99.90;;;;;;5019104;28;20025;-81
2023/03/10 10:13:25;;;;;;;1.83;0.80;;;11.10;99.90;;;;;;5017401;28;20135;-82
2023/03/10 10:16:35;;;;;;;1.33;0.60;;;11.00;99.90;;;;;;5019540;28;20030;-80
2023/03/10 10:19:21;;;;;;;4.83;0.50;;;11.00;99.90;;;;;;4984747;28;20062;-81
2023/03/10 10:21:59;;;;;;;1.10;0.60;;;10.80;99.90;;;;;;5016147;28;20143;-81
2023/03/10 10:24:24;;;;;;;0.93;0.40;;;10.70;99.90;;;;;;5022708;28;20904;-81
2023/03/10 10:26:50;;;;;;;1.10;0.60;;;10.60;99.90;;;;;;5020663;28;20948;-81
2023/03/10 10:29:21;;;;;;;1.70;0.40;;;10.40;99.90;;;;;;5020658;28;20039;-84
2023/03/10 10:32:11;;;;;;;0.67;0.43;;;10.10;99.90;;;;;;5021581;28;20492;-82
2023/03/10 10:34:39;;;;;;;1.17;0.70;;;9.90;99.90;;;;;;5015593;28;20041;-81
2023/03/10 10:37:26;;;;;;;0.50;0.50;;;9.70;99.90;;;;;;5020794;28;20026;-80
2023/03/10 10:39:54;;;;;;;1.50;0.53;;;9.40;99.90;;;;;;5020993;28;20701;-81
2023/03/10 10:42:24;;;;;;;1.90;0.40;;;9.10;99.90;;;;;;5019507;28;20037;-81
2023/03/10 10:44:53;;;;;;;0.53;0.40;;;8.90;99.90;;;;;;5026247;28;20053;-81
2023/03/10 10:47:25;;;;;;;0.60;0.60;;;8.80;99.90;;;;;;5024842;28;20466;-81
2023/03/10 10:49:51;;;;;;;0.67;0.50;;;8.70;99.90;;;;;;5019464;28;20392;-81
2023/03/10 10:52:24;;;;;;;0.40;0.40;;;8.70;99.90;;;;;;5018077;28;20103;-81
2023/03/10 10:54:57;;;;;;;0.90;0.70;;;8.70;99.90;;;;;;5019876;28;20044;-81
2023/03/10 10:57:34;;;;;;;0.77;0.60;;;8.70;99.90;;;;;;5021816;28;20040;-79
2023/03/10 11:00:27;;;;;;;2.87;0.70;;;8.80;99.90;;;;;;5024247;28;20429;-79
2023/03/10 11:02:54;;;;;;;1.77;1.00;;;8.90;99.90;;;;;;5024868;28;20040;-79
2023/03/10 11:05:23;;;;;;;1.43;0.60;;;9.10;99.90;;;;;;5025532;28;20393;-79
2023/03/10 11:07:51;;;;;;;2.73;0.80;;;9.20;99.90;;;;;;5026610;28;20047;-79
2023/03/10 11:10:20;;;;;;;3.20;1.23;;;9.30;99.90;;;;;;5025566;28;20155;-79
2023/03/10 11:13:03;;;;;;;1.30;0.80;;;9.40;99.90;;;;;;5026149;28;20034;-79
2023/03/10 11:15:36;;;;;;;1.07;0.60;;;9.50;99.90;;;;;;5030603;28;20033;-78
2023/03/10 11:18:24;;;;;;;1.40;0.70;;;9.70;99.90;;;;;;5028143;28;20498;-79
2023/03/10 11:21:08;;;;;;;2.93;0.80;;;9.90;99.90;;;;;;5027206;28;20033;-78
2023/03/10 11:23:52;;;;;;;5.23;0.80;;;10.10;99.90;;;;;;5026615;28;20093;-78
2023/03/10 11:26:28;;;;;;;2.20;0.87;;;10.10;99.90;;;;;;5027281;28;20421;-78
2023/03/10 11:29:00;;;;;;;2.47;0.83;;;10.20;99.90;;;;;;5026832;28;20037;-82
2023/03/10 11:31:32;;;;;;;3.77;0.90;;;10.40;99.90;;;;;;5026945;28;20025;-81
2023/03/10 11:34:09;;;;;;;5.17;0.93;;;10.90;99.90;;;;;;5026718;28;20034;-79
2023/03/10 11:36:50;;;;;;;4.53;0.83;;;11.40;99.90;;;;;;5025861;28;20028;-79
2023/03/10 11:39:24;;;;;;;3.40;0.90;;;12.00;99.90;;;;;;5029032;28;20910;-76
2023/03/10 11:41:59;;;;;;;1.83;1.00;;;12.20;99.90;;;;;;5029185;28;21425;-79
2023/03/10 11:44:40;;;;;;;1.73;0.80;;;12.30;99.90;;;;;;5030426;28;20029;-73
2023/03/10 11:47:28;;;;;;;1.48;0.63;;;12.50;99.90;;;;;;5024049;28;20033;-74
2023/03/10 11:50:09;;;;;;;2.15;0.80;;;12.80;99.90;;;;;;5016405;28;20705;-75
2023/03/10 11:52:36;;;;;;;3.45;0.65;;;12.90;99.90;;;;;;5024158;28;20061;-75
2023/03/10 11:55:10;;;;;;;1.10;0.70;;;13.20;99.90;;;;;;5026778;28;20687;-77
2023/03/10 11:57:43;;;;;;;0.80;0.50;;;13.60;99.90;;;;;;5021936;28;21126;-78
2023/03/10 12:00:17;;;;;;;3.45;0.95;;;13.90;99.90;;;;;;5024363;28;21312;-77
2023/03/10 12:03:06;;;;;;;1.60;0.77;;;13.90;99.90;;;;;;5017283;28;20112;-77
2023/03/10 12:05:43;;;;;;;1.30;0.60;;;14.00;99.90;;;;;;5018621;28;20041;-77
2023/03/10 12:08:11;;;;;;;1.15;0.60;;;14.20;99.90;;;;;;5018833;28;20211;-77
2023/03/10 12:10:39;;;;;;;1.70;0.50;;;14.40;99.90;;;;;;5017054;28;20038;-77
2023/03/10 12:13:13;;;;;;;1.70;0.50;;;14.50;99.90;;;;;;5013446;28;20636;-77
2023/03/10 12:15:38;;;;;;;2.80;0.52;;;14.10;99.90;;;;;;5017204;28;20094;-78
2023/03/10 12:18:06;;;;;;;2.60;0.63;;;14.00;99.90;;;;;;5019655;28;20029;-73
2023/03/10 12:20:33;;;;;;;0.88;0.40;;;13.80;99.90;;;;;;5022659;28;20025;-74
2023/03/10 12:23:19;;;;;;;2.92;0.80;;;13.80;99.90;;;;;;5024637;28;20033;-77
2023/03/10 12:25:45;;;;;;;1.52;0.40;;;13.80;99.90;;;;;;5024264;28;20037;-77
2023/03/10 12:28:17;;;;;;;2.35;0.60;;;13.90;99.90;;;;;;5021931;28;20032;-76
2023/03/10 12:30:59;;;;;;;1.33;0.70;;;13.90;99.90;;;;;;5020888;28;20033;-74
2023/03/10 12:33:30;;;;;;;4.00;0.60;;;14.10;99.90;;;;;;5021858;28;20040;-74
2023/03/10 12:36:06;;;;;;;2.90;0.90;;;14.10;99.90;;;;;;5017938;28;20068;-74
2023/03/10 12:38:57;;;;;;;3.67;0.90;;;13.70;99.90;;;;;;5019722;28;20750;-77
2023/03/10 12:41:26;;;;;;;1.92;0.50;;;13.40;99.90;;;;;;5020517;28;20484;-78
2023/03/10 12:44:05;;;;;;;0.80;0.47;;;13.30;99.90;;;;;;5020925;28;20030;-75
2023/03/10 12:46:48;;;;;;;0.75;0.45;;;13.20;99.90;;;;;;5024693;28;20025;-75
2023/03/10 12:49:35;;;;;;;2.55;0.45;;;13.00;99.90;;;;;;5024606;28;20033;-74
2023/03/10 12:52:12;;;;;;;1.75;0.70;;;12.90;99.90;;;;;;5021946;28;20033;-74
2023/03/10 12:54:51;;;;;;;1.00;0.70;;;12.80;99.90;;;;;;5026256;28;20037;-74
2023/03/10 12:57:28;;;;;;;3.42;0.75;;;12.70;99.90;;;;;;5022488;28;20025;-74
2023/03/10 13:00:15;;;;;;;0.85;0.60;;;12.70;99.90;;;;;;5024192;28;20033;-74
2023/03/10 13:02:49;;;;;;;2.67;0.50;;;12.60;99.90;;;;;;5022494;28;20034;-74